createdAt,value
2023-05-10T00:00:10.155Z,99.85
2023-05-10T00:02:36.938Z,99.89
2023-05-10T00:05:03.570Z,99.78
2023-05-10T00:07:29.954Z,99.45
2023-05-10T00:09:56.324Z,99.77
2023-05-10T00:12:22.699Z,99.77
2023-05-10T00:14:49.158Z,99.38
2023-05-10T00:17:15.734Z,99.75
2023-05-10T00:19:42.257Z,99.65
2023-05-10T00:22:08.696Z,99.67
2023-05-10T00:24:35.072Z,99.64
2023-05-10T00:27:01.651Z,99.82
2023-05-10T00:29:29.292Z,99.95
2023-05-10T00:31:55.657Z,99.53
2023-05-10T00:34:22.490Z,99.53
2023-05-10T00:36:48.880Z,99.73
2023-05-10T00:39:15.374Z,99.61
2023-05-10T00:41:41.748Z,99.72
2023-05-10T00:44:08.223Z,99.55
2023-05-10T00:46:35.248Z,99.45
2023-05-10T00:49:02.127Z,99.79
2023-05-10T00:51:28.902Z,99.89
2023-05-10T00:53:56.933Z,99.67
2023-05-10T00:56:24.210Z,100.00
2023-05-10T00:58:51.218Z,99.61
2023-05-10T01:01:17.603Z,99.87
2023-05-10T01:03:44.658Z,99.69
2023-05-10T01:06:11.258Z,100.00
2023-05-10T01:08:37.911Z,99.89
2023-05-10T01:11:04.381Z,100.00
2023-05-10T01:13:38.912Z,100.00
2023-05-10T01:16:07.350Z,100.00
2023-05-10T01:18:44.361Z,100.00
2023-05-10T01:21:34.031Z,100.00
2023-05-10T01:24:06.421Z,100.00
2023-05-10T01:27:07.069Z,100.00
2023-05-10T01:30:21.746Z,99.84
2023-05-10T01:33:07.669Z,100.00
2023-05-10T01:35:41.162Z,99.99
2023-05-10T01:38:07.512Z,99.84
2023-05-10T01:40:40.516Z,99.62
2023-05-10T01:43:17.897Z,99.76
2023-05-10T01:45:54.293Z,99.75
2023-05-10T01:48:22.094Z,99.95
2023-05-10T01:50:50.529Z,99.99
2023-05-10T01:53:21.272Z,100.00
2023-05-10T01:55:50.174Z,99.78
2023-05-10T01:58:22.108Z,100.00
2023-05-10T02:00:51.538Z,100.00
2023-05-10T02:03:21.507Z,99.91
2023-05-10T02:05:50.489Z,100.00
2023-05-10T02:08:19.013Z,99.80
2023-05-10T02:10:47.445Z,100.00
2023-05-10T02:13:16.515Z,100.00
2023-05-10T02:15:44.189Z,99.81
2023-05-10T02:18:12.710Z,99.83
2023-05-10T02:20:39.847Z,100.00
2023-05-10T02:23:08.553Z,99.97
2023-05-10T02:25:35.487Z,100.00
2023-05-10T02:28:06.008Z,99.72
2023-05-10T02:30:35.193Z,100.00
2023-05-10T02:33:04.724Z,100.00
2023-05-10T02:35:34.258Z,99.90
2023-05-10T02:38:01.671Z,99.96
2023-05-10T02:40:29.056Z,99.89
2023-05-10T02:42:57.367Z,99.90
2023-05-10T02:45:29.098Z,100.00
2023-05-10T02:47:56.194Z,100.00
2023-05-10T02:50:23.604Z,99.85
2023-05-10T02:52:55.325Z,100.00
2023-05-10T02:55:33.156Z,100.00
2023-05-10T02:58:01.904Z,99.82
2023-05-10T03:00:28.661Z,100.00
2023-05-10T03:02:55.828Z,99.98
2023-05-10T03:05:22.398Z,99.98
2023-05-10T03:07:49.393Z,99.84
2023-05-10T03:10:16.191Z,99.70
2023-05-10T03:12:51.118Z,100.00
2023-05-10T03:15:33.159Z,99.91
2023-05-10T03:18:38.227Z,100.00
2023-05-10T03:21:08.817Z,99.73
2023-05-10T03:23:41.484Z,99.81
2023-05-10T03:26:09.057Z,99.84
2023-05-10T03:28:36.039Z,99.93
2023-05-10T03:31:05.324Z,99.72
2023-05-10T03:33:31.846Z,99.96
2023-05-10T03:35:58.228Z,99.62
2023-05-10T03:38:24.715Z,99.62
2023-05-10T03:40:51.101Z,99.80
2023-05-10T03:43:17.453Z,99.97
2023-05-10T03:45:43.840Z,99.72
2023-05-10T03:48:10.230Z,99.52
2023-05-10T03:50:36.752Z,99.70
2023-05-10T03:53:03.141Z,99.92
2023-05-10T03:55:30.552Z,99.92
2023-05-10T03:57:56.935Z,99.48
2023-05-10T04:00:23.320Z,99.81
2023-05-10T04:02:49.905Z,99.63
2023-05-10T04:05:16.764Z,99.72
2023-05-10T04:07:43.232Z,99.83
2023-05-10T04:10:09.863Z,100.00
2023-05-10T04:12:36.267Z,100.00
2023-05-10T04:15:02.689Z,99.73
2023-05-10T04:17:29.132Z,99.94
2023-05-10T04:19:56.676Z,99.71
2023-05-10T04:22:23.009Z,100.00
2023-05-10T04:24:49.407Z,99.89
2023-05-10T04:27:15.764Z,99.86
2023-05-10T04:29:42.528Z,99.70
2023-05-10T04:32:09.001Z,100.00
2023-05-10T04:34:35.433Z,100.00
2023-05-10T04:37:01.974Z,99.81
2023-05-10T04:39:28.441Z,100.00
2023-05-10T04:41:55.224Z,100.00
2023-05-10T04:44:21.671Z,99.87
2023-05-10T04:46:48.178Z,100.00
2023-05-10T04:49:15.711Z,99.83
2023-05-10T04:51:42.059Z,99.89
2023-05-10T04:54:08.491Z,100.00
2023-05-10T04:56:35.101Z,99.84
2023-05-10T04:59:01.516Z,100.00
2023-05-10T05:01:28.097Z,99.93
2023-05-10T05:03:54.716Z,99.81
2023-05-10T05:06:25.779Z,99.78
2023-05-10T05:08:52.472Z,99.92
2023-05-10T05:11:18.986Z,100.00
2023-05-10T05:13:45.493Z,100.00
2023-05-10T05:16:12.381Z,100.00
2023-05-10T05:18:39.187Z,99.63
2023-05-10T05:21:18.139Z,99.91
2023-05-10T05:23:44.915Z,99.65
2023-05-10T05:26:11.850Z,99.74
2023-05-10T05:28:38.648Z,100.00
2023-05-10T05:31:06.462Z,99.71
2023-05-10T05:33:33.175Z,99.28
2023-05-10T05:36:01.932Z,99.34
2023-05-10T05:38:28.323Z,99.22
2023-05-10T05:40:54.677Z,99.05
2023-05-10T05:43:21.088Z,99.29
2023-05-10T05:45:47.451Z,99.22
2023-05-10T05:48:13.983Z,99.21
2023-05-10T05:50:40.364Z,98.93
2023-05-10T05:53:06.746Z,98.99
2023-05-10T05:55:33.403Z,98.73
2023-05-10T05:57:59.942Z,98.74
2023-05-10T06:00:26.915Z,98.82
2023-05-10T06:02:53.446Z,98.81
2023-05-10T06:05:20.253Z,98.96
2023-05-10T06:07:47.005Z,98.73
2023-05-10T06:10:13.421Z,98.64
2023-05-10T06:12:39.960Z,98.72
2023-05-10T06:15:06.822Z,98.43
2023-05-10T06:17:33.251Z,98.10
2023-05-10T06:19:59.813Z,98.48
2023-05-10T06:22:26.254Z,98.29
2023-05-10T06:24:52.958Z,98.42
2023-05-10T06:27:19.589Z,98.59
2023-05-10T06:29:45.923Z,98.42
2023-05-10T06:32:12.477Z,98.31
2023-05-10T06:34:38.989Z,98.19
2023-05-10T06:37:05.593Z,97.89
2023-05-10T06:39:31.989Z,97.30
2023-05-10T06:41:58.330Z,96.94
2023-05-10T06:44:24.719Z,97.34
2023-05-10T06:46:51.541Z,96.91
2023-05-10T06:49:18.130Z,96.63
2023-05-10T06:51:44.815Z,96.47
2023-05-10T06:54:11.233Z,96.51
2023-05-10T06:56:37.711Z,95.93
2023-05-10T06:59:04.124Z,95.43
2023-05-10T07:01:30.770Z,95.79
2023-05-10T07:03:57.542Z,95.41
2023-05-10T07:06:33.097Z,95.41
2023-05-10T07:09:01.309Z,95.30
2023-05-10T07:11:27.934Z,94.92
2023-05-10T07:13:54.267Z,94.67
2023-05-10T07:16:20.854Z,94.34
2023-05-10T07:18:47.372Z,94.36
2023-05-10T07:21:13.868Z,94.99
2023-05-10T07:23:40.715Z,94.63
2023-05-10T07:26:07.993Z,93.67
2023-05-10T07:28:34.622Z,94.11
2023-05-10T07:31:01.058Z,94.72
2023-05-10T07:33:27.434Z,94.90
2023-05-10T07:35:54.498Z,94.40
2023-05-10T07:38:20.830Z,94.53
2023-05-10T07:40:47.184Z,93.85
2023-05-10T07:43:13.538Z,93.86
2023-05-10T07:45:39.879Z,93.56
2023-05-10T07:48:06.556Z,92.78
2023-05-10T07:50:33.140Z,92.48
2023-05-10T07:52:59.551Z,92.46
2023-05-10T07:55:25.969Z,91.92
2023-05-10T07:57:52.304Z,91.06
2023-05-10T08:00:20.227Z,90.92
2023-05-10T08:02:47.554Z,91.49
2023-05-10T08:05:14.516Z,90.75
2023-05-10T08:07:41.116Z,91.56
2023-05-10T08:10:08.407Z,90.09
2023-05-10T08:12:34.726Z,90.21
2023-05-10T08:15:01.103Z,90.34
2023-05-10T08:17:27.495Z,88.99
2023-05-10T08:19:53.871Z,90.27
2023-05-10T08:22:20.257Z,89.85
2023-05-10T08:24:46.762Z,90.14
2023-05-10T08:27:13.702Z,90.25
2023-05-10T08:29:49.657Z,90.91
2023-05-10T08:32:16.758Z,90.46
2023-05-10T08:34:43.157Z,90.55
2023-05-10T08:37:09.727Z,90.31
2023-05-10T08:39:36.646Z,90.18
2023-05-10T08:42:05.805Z,89.34
2023-05-10T08:44:36.168Z,89.87
2023-05-10T08:47:06.141Z,89.52
2023-05-10T08:49:33.929Z,89.96
2023-05-10T08:52:06.593Z,89.96
2023-05-10T08:54:34.334Z,90.20
2023-05-10T08:57:01.192Z,90.24
2023-05-10T08:59:28.502Z,89.94
2023-05-10T09:01:58.167Z,89.43
2023-05-10T09:04:25.215Z,88.78
2023-05-10T09:06:51.862Z,88.67
2023-05-10T09:09:20.030Z,86.42
2023-05-10T09:11:47.106Z,84.98
2023-05-10T09:14:13.999Z,85.35
2023-05-10T09:16:42.126Z,84.90
2023-05-10T09:19:09.719Z,86.21
2023-05-10T09:21:40.165Z,87.03
2023-05-10T09:24:08.550Z,84.83
2023-05-10T09:26:36.794Z,83.46
2023-05-10T09:29:04.165Z,82.41
2023-05-10T09:31:51.915Z,83.05
2023-05-10T09:34:19.379Z,81.95
2023-05-10T09:36:57.994Z,78.94
2023-05-10T09:39:38.262Z,77.84
2023-05-10T09:42:07.284Z,74.36
2023-05-10T09:44:35.070Z,74.85
2023-05-10T09:47:02.479Z,74.76
2023-05-10T09:49:29.672Z,77.79
2023-05-10T09:52:02.216Z,76.46
2023-05-10T09:54:28.604Z,75.64
2023-05-10T09:56:54.932Z,77.37
2023-05-10T09:59:21.393Z,76.62
2023-05-10T10:02:06.195Z,77.74
2023-05-10T10:04:33.066Z,77.15
2023-05-10T10:07:01.941Z,78.78
2023-05-10T10:09:29.060Z,79.40
2023-05-10T10:11:55.447Z,79.96
2023-05-10T10:14:23.785Z,79.88
2023-05-10T10:17:05.728Z,78.79
2023-05-10T10:19:37.611Z,78.37
2023-05-10T10:22:04.944Z,78.52
2023-05-10T10:24:31.390Z,79.05
2023-05-10T10:27:05.591Z,79.28
2023-05-10T10:29:51.029Z,79.29
2023-05-10T10:32:36.781Z,77.87
2023-05-10T10:35:03.733Z,78.66
2023-05-10T10:37:51.344Z,78.90
2023-05-10T10:40:33.713Z,79.54
2023-05-10T10:43:28.165Z,79.18
2023-05-10T10:46:15.180Z,79.32
2023-05-10T10:48:47.929Z,79.76
2023-05-10T10:51:14.772Z,79.00
2023-05-10T10:53:41.972Z,78.99
2023-05-10T10:56:14.652Z,78.43
2023-05-10T10:58:41.697Z,77.87
2023-05-10T11:01:19.497Z,77.90
2023-05-10T11:04:01.694Z,77.64
2023-05-10T11:06:35.869Z,78.07
2023-05-10T11:09:10.073Z,77.48
2023-05-10T11:11:49.159Z,77.17
2023-05-10T11:14:20.573Z,78.21
2023-05-10T11:16:47.097Z,78.17
2023-05-10T11:19:15.271Z,78.77
2023-05-10T11:22:06.504Z,78.80
2023-05-10T11:24:34.794Z,80.53
2023-05-10T11:27:01.813Z,79.60
2023-05-10T11:29:28.370Z,79.03
2023-05-10T11:31:58.801Z,79.71
2023-05-10T11:34:34.248Z,80.66
2023-05-10T11:37:00.760Z,78.80
2023-05-10T11:39:29.011Z,76.15
2023-05-10T11:41:55.586Z,75.44
2023-05-10T11:44:21.980Z,74.33
2023-05-10T11:46:49.800Z,72.50
2023-05-10T11:49:16.316Z,70.95
2023-05-10T11:51:44.643Z,70.95
2023-05-10T11:54:12.168Z,71.73
2023-05-10T11:56:40.243Z,71.73
2023-05-10T11:59:07.440Z,71.96
2023-05-10T12:01:34.573Z,71.14
2023-05-10T12:04:02.179Z,72.15
2023-05-10T12:06:31.908Z,75.28
2023-05-10T12:08:59.015Z,75.89
2023-05-10T12:11:28.048Z,76.39
2023-05-10T12:13:55.843Z,76.13
2023-05-10T12:16:24.419Z,75.08
2023-05-10T12:18:55.627Z,75.57
2023-05-10T12:21:22.237Z,74.39
2023-05-10T12:23:53.663Z,75.97
2023-05-10T12:26:24.158Z,73.17
2023-05-10T12:28:50.871Z,74.91
2023-05-10T12:31:17.376Z,72.45
2023-05-10T12:33:46.208Z,71.03
2023-05-10T12:36:14.321Z,65.81
2023-05-10T12:38:44.215Z,67.76
2023-05-10T12:41:15.753Z,66.60
2023-05-10T12:43:42.820Z,66.31
2023-05-10T12:46:11.260Z,63.75
2023-05-10T12:48:38.985Z,62.96
2023-05-10T12:51:06.186Z,62.38
2023-05-10T12:53:32.779Z,63.31
2023-05-10T12:55:59.186Z,61.95
2023-05-10T12:58:35.051Z,63.39
2023-05-10T13:01:02.602Z,64.62
2023-05-10T13:03:28.963Z,65.78
2023-05-10T13:05:55.386Z,65.50
2023-05-10T13:08:21.760Z,64.80
2023-05-10T13:10:48.219Z,68.34
2023-05-10T13:13:15.370Z,70.04
2023-05-10T13:15:41.962Z,69.00
2023-05-10T13:18:09.162Z,70.78
2023-05-10T13:20:36.033Z,70.90
2023-05-10T13:23:03.453Z,71.18
2023-05-10T13:25:29.933Z,72.06
2023-05-10T13:27:56.373Z,73.33
2023-05-10T13:32:56.463Z,74.71
2023-05-10T13:35:22.975Z,76.11
2023-05-10T13:37:49.304Z,78.12
2023-05-10T13:40:16.669Z,78.75
2023-05-10T13:42:43.436Z,80.21
2023-05-10T13:45:10.706Z,81.32
2023-05-10T13:47:37.299Z,80.95
2023-05-10T13:50:04.278Z,81.57
2023-05-10T13:52:30.625Z,82.52
2023-05-10T13:54:58.126Z,82.87
2023-05-10T13:57:25.056Z,83.88
2023-05-10T13:59:53.169Z,84.02
2023-05-10T14:02:22.523Z,84.26
2023-05-10T14:04:49.265Z,84.41
2023-05-10T14:07:15.647Z,84.87
2023-05-10T14:09:42.077Z,85.21
2023-05-10T14:12:17.262Z,85.21
2023-05-10T14:14:43.628Z,85.46
2023-05-10T14:17:12.195Z,85.56
2023-05-10T14:19:39.732Z,85.04
2023-05-10T14:22:06.448Z,86.02
2023-05-10T14:24:33.337Z,86.53
2023-05-10T14:27:36.043Z,86.21
2023-05-10T14:30:02.498Z,86.24
2023-05-10T14:32:29.353Z,87.04
2023-05-10T14:34:55.897Z,87.49
2023-05-10T14:37:22.266Z,87.56
2023-05-10T14:39:48.600Z,87.85
2023-05-10T14:42:14.948Z,87.45
2023-05-10T14:44:41.271Z,88.88
2023-05-10T14:47:08.091Z,87.91
2023-05-10T14:49:35.216Z,88.83
2023-05-10T14:52:01.688Z,89.25
2023-05-10T14:54:28.423Z,88.31
2023-05-10T14:56:54.789Z,88.52
2023-05-10T14:59:21.518Z,88.79
2023-05-10T15:01:48.229Z,88.37
2023-05-10T15:04:17.255Z,89.35
2023-05-10T15:06:44.170Z,89.40
2023-05-10T15:09:10.840Z,88.92
2023-05-10T15:11:37.264Z,89.03
2023-05-10T15:14:03.686Z,88.34
2023-05-10T15:16:30.341Z,86.65
2023-05-10T15:18:57.655Z,87.36
2023-05-10T15:21:24.027Z,86.49
2023-05-10T15:23:50.391Z,86.23
2023-05-10T15:26:16.818Z,86.26
2023-05-10T15:28:43.831Z,85.64
2023-05-10T15:31:10.331Z,84.58
2023-05-10T15:33:39.663Z,85.29
2023-05-10T15:36:06.149Z,84.20
2023-05-10T15:38:32.563Z,84.58
2023-05-10T15:40:59.179Z,84.59
2023-05-10T15:43:25.821Z,84.55
2023-05-10T15:45:52.215Z,83.80
2023-05-10T15:48:18.575Z,83.78
2023-05-10T15:50:45.014Z,84.09
2023-05-10T15:53:11.374Z,84.50
2023-05-10T15:55:37.709Z,84.36
2023-05-10T15:58:04.238Z,83.00
2023-05-10T16:00:30.685Z,81.31
2023-05-10T16:02:57.381Z,81.31
2023-05-10T16:05:24.210Z,80.93
2023-05-10T16:07:50.550Z,82.66
2023-05-10T16:10:16.920Z,82.27
2023-05-10T16:12:43.425Z,82.21
2023-05-10T16:15:10.402Z,81.92
2023-05-10T16:17:37.433Z,83.05
2023-05-10T16:20:05.058Z,82.61
2023-05-10T16:22:31.484Z,83.12
2023-05-10T16:24:59.682Z,83.70
2023-05-10T16:27:28.777Z,83.28
2023-05-10T16:29:55.347Z,82.90
2023-05-10T16:32:21.798Z,82.39
2023-05-10T16:34:48.213Z,82.47
2023-05-10T16:37:14.625Z,83.01
2023-05-10T16:39:41.169Z,83.87
2023-05-10T16:42:07.686Z,83.03
2023-05-10T16:44:34.162Z,83.33
2023-05-10T16:47:00.507Z,82.55
2023-05-10T16:49:27.032Z,83.73
2023-05-10T16:51:53.584Z,83.14
2023-05-10T16:54:21.844Z,82.19
2023-05-10T16:56:48.267Z,82.25
2023-05-10T16:59:14.606Z,81.78
2023-05-10T17:01:41.088Z,81.93
2023-05-10T17:04:07.712Z,80.87
2023-05-10T17:06:36.037Z,81.31
2023-05-10T17:09:04.001Z,81.38
2023-05-10T17:11:30.449Z,80.97
2023-05-10T17:13:57.324Z,81.53
2023-05-10T17:16:27.292Z,81.61
2023-05-10T17:18:53.792Z,81.72
2023-05-10T17:21:20.396Z,82.33
2023-05-10T17:23:46.807Z,81.48
2023-05-10T17:26:13.227Z,82.96
2023-05-10T17:28:39.611Z,82.91
2023-05-10T17:31:06.011Z,82.56
2023-05-10T17:33:32.481Z,83.53
2023-05-10T17:35:58.987Z,81.53
2023-05-10T17:38:25.419Z,81.76
2023-05-10T17:40:51.797Z,82.12
2023-05-10T17:43:18.224Z,82.77
2023-05-10T17:45:47.916Z,83.78
2023-05-10T17:48:14.425Z,84.29
2023-05-10T17:50:44.467Z,84.04
2023-05-10T17:53:11.125Z,83.65
2023-05-10T17:55:41.117Z,84.33
2023-05-10T17:58:08.293Z,83.64
2023-05-10T18:00:34.758Z,83.44
2023-05-10T18:03:02.301Z,83.56
2023-05-10T18:05:28.785Z,82.87
2023-05-10T18:07:55.213Z,82.24
2023-05-10T18:10:21.897Z,81.64
2023-05-10T18:12:50.179Z,82.63
2023-05-10T18:15:17.007Z,82.51
2023-05-10T18:17:43.698Z,83.91
2023-05-10T18:20:10.527Z,83.73
2023-05-10T18:22:37.080Z,82.76
2023-05-10T18:25:04.508Z,82.98
2023-05-10T18:27:30.911Z,83.51
2023-05-10T18:29:57.334Z,83.03
2023-05-10T18:32:24.062Z,83.40
2023-05-10T18:34:50.584Z,84.17
2023-05-10T18:37:16.961Z,83.26
2023-05-10T18:39:43.371Z,83.68
2023-05-10T18:42:09.953Z,83.99
2023-05-10T18:44:36.430Z,84.43
2023-05-10T18:47:02.838Z,84.36
2023-05-10T18:49:29.445Z,84.56
2023-05-10T18:51:56.055Z,85.44
2023-05-10T18:54:22.700Z,85.95
2023-05-10T18:56:49.761Z,85.66
2023-05-10T18:59:16.507Z,85.63
2023-05-10T19:01:43.158Z,84.96
2023-05-10T19:04:09.707Z,85.61
2023-05-10T19:06:36.581Z,85.93
2023-05-10T19:09:03.390Z,85.19
2023-05-10T19:11:32.294Z,86.43
2023-05-10T19:13:58.910Z,87.03
2023-05-10T19:16:26.266Z,86.30
2023-05-10T19:18:52.721Z,86.26
2023-05-10T19:21:19.527Z,87.30
2023-05-10T19:23:47.381Z,87.85
2023-05-10T19:26:13.938Z,87.89
2023-05-10T19:28:40.344Z,88.53
2023-05-10T19:31:08.757Z,87.76
2023-05-10T19:33:36.119Z,88.93
2023-05-10T19:36:02.714Z,89.15
2023-05-10T19:38:29.314Z,89.11
2023-05-10T19:40:59.398Z,88.89
2023-05-10T19:43:26.874Z,89.05
2023-05-10T19:45:54.244Z,88.93
2023-05-10T19:48:20.798Z,89.28
2023-05-10T19:50:47.163Z,89.61
2023-05-10T19:53:13.531Z,90.36
2023-05-10T19:55:40.188Z,90.46
2023-05-10T20:00:38.148Z,90.52
2023-05-10T20:03:07.008Z,90.52
2023-05-10T20:05:35.546Z,90.66
2023-05-10T20:08:01.971Z,90.88
2023-05-10T20:10:28.448Z,90.73
2023-05-10T20:12:54.841Z,90.82
2023-05-10T20:15:22.951Z,90.98
2023-05-10T20:17:53.850Z,91.75
2023-05-10T20:20:21.218Z,91.19
2023-05-10T20:22:48.444Z,91.44
2023-05-10T20:25:16.356Z,90.96
2023-05-10T20:27:43.115Z,90.76
2023-05-10T20:30:10.545Z,91.05
2023-05-10T20:32:38.071Z,90.98
2023-05-10T20:35:05.048Z,91.04
2023-05-10T20:37:31.772Z,90.63
2023-05-10T20:39:58.221Z,91.04
2023-05-10T20:42:24.645Z,91.07
2023-05-10T20:44:51.080Z,91.71
2023-05-10T20:47:18.203Z,92.03
2023-05-10T20:49:44.546Z,91.93
2023-05-10T20:52:10.930Z,91.72
2023-05-10T20:54:37.290Z,92.31
2023-05-10T20:57:03.701Z,92.16
2023-05-10T20:59:30.097Z,92.53
2023-05-10T21:01:57.460Z,92.23
2023-05-10T21:04:24.594Z,92.10
2023-05-10T21:06:51.400Z,92.21
2023-05-10T21:09:17.794Z,92.34
2023-05-10T21:11:44.352Z,92.49
2023-05-10T21:14:10.730Z,93.10
2023-05-10T21:16:37.137Z,92.89
2023-05-10T21:19:03.655Z,93.06
2023-05-10T21:21:30.115Z,92.93
2023-05-10T21:23:56.609Z,93.06
2023-05-10T21:26:23.285Z,92.79
2023-05-10T21:28:49.711Z,92.63
2023-05-10T21:31:16.088Z,92.82
2023-05-10T21:33:42.592Z,92.97
2023-05-10T21:36:09.631Z,93.38
2023-05-10T21:38:36.154Z,93.56
2023-05-10T21:41:06.971Z,93.39
2023-05-10T21:43:33.672Z,93.36
2023-05-10T21:46:00.037Z,93.68
2023-05-10T21:48:26.393Z,93.58
2023-05-10T21:50:52.716Z,93.28
2023-05-10T21:53:19.125Z,93.02
2023-05-10T21:55:45.680Z,93.05
2023-05-10T21:58:12.031Z,93.21
2023-05-10T22:00:38.363Z,93.08
2023-05-10T22:03:04.795Z,93.31
2023-05-10T22:05:31.197Z,92.85
2023-05-10T22:07:57.545Z,92.26
2023-05-10T22:10:23.947Z,91.84
2023-05-10T22:12:50.420Z,92.23
2023-05-10T22:15:17.065Z,93.12
2023-05-10T22:17:43.470Z,93.45
2023-05-10T22:20:10.209Z,92.95
2023-05-10T22:22:36.733Z,93.48
2023-05-10T22:25:03.988Z,93.80
2023-05-10T22:27:30.508Z,93.47
2023-05-10T22:29:57.029Z,93.46
2023-05-10T22:32:23.422Z,93.49
2023-05-10T22:34:49.948Z,93.28
2023-05-10T22:37:17.920Z,93.84
2023-05-10T22:39:48.751Z,94.01
2023-05-10T22:42:15.528Z,94.02
2023-05-10T22:44:42.728Z,93.85
2023-05-10T22:47:09.262Z,93.70
2023-05-10T22:49:35.701Z,93.67
2023-05-10T22:52:02.344Z,93.31
2023-05-10T22:54:28.701Z,93.59
2023-05-10T22:56:56.392Z,93.45
2023-05-10T22:59:22.911Z,93.41
2023-05-10T23:01:49.308Z,93.46
2023-05-10T23:04:15.850Z,93.32
2023-05-10T23:06:42.403Z,93.72
2023-05-10T23:09:08.996Z,93.94
2023-05-10T23:11:35.421Z,94.09
2023-05-10T23:14:01.905Z,93.67
2023-05-10T23:16:28.348Z,93.68
2023-05-10T23:18:55.058Z,93.71
2023-05-10T23:21:21.511Z,93.93
2023-05-10T23:23:48.022Z,93.90
2023-05-10T23:26:14.611Z,93.66
2023-05-10T23:28:41.091Z,93.43
2023-05-10T23:31:07.549Z,93.98
2023-05-10T23:33:34.012Z,94.16
2023-05-10T23:36:00.401Z,93.89
2023-05-10T23:38:26.999Z,93.74
2023-05-10T23:40:53.441Z,94.09
2023-05-10T23:43:20.805Z,93.60
2023-05-10T23:45:57.419Z,93.65
2023-05-10T23:48:24.328Z,94.18
2023-05-10T23:50:50.947Z,93.81
2023-05-10T23:53:17.584Z,93.86
2023-05-10T23:55:44.537Z,94.60
2023-05-10T23:58:11.600Z,93.94
